createdAt,value
2019-01-27T00:02:11.798Z,941.4
2019-01-27T00:05:17.697Z,941.4
2019-01-27T00:08:23.611Z,941.5
2019-01-27T00:11:29.569Z,941.5
2019-01-27T00:14:35.527Z,941.7
2019-01-27T00:17:41.485Z,941.6
2019-01-27T00:20:47.488Z,941.6
2019-01-27T00:23:53.506Z,941.6
2019-01-27T00:26:59.385Z,941.7
2019-01-27T00:30:05.424Z,941.8
2019-01-27T00:33:11.304Z,941.7
2019-01-27T00:36:17.345Z,941.8
2019-01-27T00:39:23.265Z,941.8
2019-01-27T00:42:29.263Z,941.8
2019-01-27T00:45:35.325Z,941.8
2019-01-27T00:48:41.284Z,941.8
2019-01-27T00:51:47.346Z,941.9
2019-01-27T00:54:53.305Z,941.9
2019-01-27T00:57:59.376Z,941.9
2019-01-27T01:01:05.326Z,941.9
2019-01-27T01:04:11.206Z,941.9
2019-01-27T01:07:17.144Z,941.9
2019-01-27T01:10:23.090Z,941.9
2019-01-27T01:13:29.165Z,941.9
2019-01-27T01:16:35.124Z,941.9
2019-01-27T01:19:41.088Z,941.8
2019-01-27T01:22:47.043Z,941.9
2019-01-27T01:25:52.929Z,941.8
2019-01-27T01:28:59.042Z,941.8
2019-01-27T01:32:05.026Z,941.9
2019-01-27T01:35:10.903Z,941.9
2019-01-27T01:38:16.943Z,941.8
2019-01-27T01:41:22.904Z,942
2019-01-27T01:44:28.782Z,942
2019-01-27T01:47:34.820Z,942
2019-01-27T01:50:40.779Z,942.1
2019-01-27T01:53:46.658Z,942.1
2019-01-27T01:56:52.595Z,942
2019-01-27T01:59:58.474Z,942
2019-01-27T02:03:04.525Z,942
2019-01-27T02:06:10.394Z,942
2019-01-27T02:09:16.332Z,941.9
2019-01-27T02:12:22.209Z,941.9
2019-01-27T02:15:28.147Z,941.9
2019-01-27T02:18:34.028Z,941.9
2019-01-27T02:21:39.933Z,941.9
2019-01-27T02:24:45.925Z,941.9
2019-01-27T02:27:51.883Z,941.9
2019-01-27T02:30:57.977Z,941.9
2019-01-27T02:34:03.937Z,941.9
2019-01-27T02:37:09.867Z,942
2019-01-27T02:40:15.824Z,942
2019-01-27T02:43:21.706Z,942
2019-01-27T02:46:27.906Z,942.1
2019-01-27T02:49:33.771Z,942.1
2019-01-27T02:52:39.763Z,942.1
2019-01-27T02:55:45.774Z,942.1
2019-01-27T02:58:51.788Z,942.1
2019-01-27T03:02:00.514Z,942.1
2019-01-27T03:05:06.472Z,942.1
2019-01-27T03:08:12.437Z,942.2
2019-01-27T03:11:18.307Z,942.3
2019-01-27T03:14:24.351Z,942.3
2019-01-27T03:17:30.305Z,942.3
2019-01-27T03:20:36.270Z,942.2
2019-01-27T03:23:42.271Z,942.2
2019-01-27T03:26:48.390Z,942.3
2019-01-27T03:29:54.349Z,942.2
2019-01-27T03:33:00.229Z,942.3
2019-01-27T03:36:06.172Z,942.4
2019-01-27T03:39:12.043Z,942.2
2019-01-27T03:42:17.981Z,942.1
2019-01-27T03:45:23.917Z,942.2
2019-01-27T03:48:29.901Z,942.2
2019-01-27T03:51:35.858Z,942.2
2019-01-27T03:54:41.838Z,942.1
2019-01-27T03:57:47.937Z,942.1
2019-01-27T04:00:53.819Z,942.2
2019-01-27T04:03:59.800Z,942.2
2019-01-27T04:07:05.871Z,942.1
2019-01-27T04:10:14.294Z,942.1
2019-01-27T04:13:20.291Z,942.2
2019-01-27T04:16:26.193Z,942.2
2019-01-27T04:19:32.259Z,942.1
2019-01-27T04:22:38.423Z,942.1
2019-01-27T04:25:44.486Z,942.2
2019-01-27T04:28:50.449Z,942.1
2019-01-27T04:31:56.508Z,942.1
2019-01-27T04:35:02.413Z,942.2
2019-01-27T04:38:08.426Z,942.2
2019-01-27T04:41:14.384Z,942.3
2019-01-27T04:44:20.263Z,942.4
2019-01-27T04:47:26.304Z,942.3
2019-01-27T04:50:32.184Z,942.3
2019-01-27T04:53:38.145Z,942.3
2019-01-27T04:56:44.182Z,942.2
2019-01-27T04:59:50.087Z,942.3
2019-01-27T05:02:56.096Z,942.3
2019-01-27T05:06:02.166Z,942.4
2019-01-27T05:09:08.079Z,942.4
2019-01-27T05:12:14.086Z,942.4
2019-01-27T05:15:20.047Z,942.5
2019-01-27T05:18:26.004Z,942.5
2019-01-27T05:21:35.653Z,942.5
2019-01-27T05:24:41.618Z,942.5
2019-01-27T05:27:47.676Z,942.5
2019-01-27T05:30:53.836Z,942.5
2019-01-27T05:33:59.819Z,942.6
2019-01-27T05:37:05.858Z,942.5
2019-01-27T05:40:11.941Z,942.5
2019-01-27T05:43:17.881Z,942.5
2019-01-27T05:46:23.837Z,942.5
2019-01-27T05:49:29.799Z,942.5
2019-01-27T05:52:35.862Z,942.5
2019-01-27T05:55:41.791Z,942.5
2019-01-27T05:58:47.788Z,942.5
2019-01-27T06:01:53.738Z,942.5
2019-01-27T06:05:02.258Z,942.5
2019-01-27T06:08:08.217Z,942.5
2019-01-27T06:11:14.178Z,942.6
2019-01-27T06:14:20.241Z,942.6
2019-01-27T06:17:26.199Z,942.7
2019-01-27T06:20:32.180Z,942.7
2019-01-27T06:23:38.037Z,942.7
2019-01-27T06:26:44.099Z,942.7
2019-01-27T06:29:50.158Z,942.6
2019-01-27T06:32:56.016Z,942.6
2019-01-27T06:36:02.282Z,942.6
2019-01-27T06:39:08.238Z,942.5
2019-01-27T06:42:15.940Z,942.6
2019-01-27T06:45:21.991Z,942.5
2019-01-27T06:48:31.020Z,942.5
2019-01-27T06:51:36.968Z,942.5
2019-01-27T06:54:42.848Z,942.5
2019-01-27T06:57:48.892Z,942.6
2019-01-27T07:00:54.771Z,942.5
2019-01-27T07:04:00.816Z,942.5
2019-01-27T07:07:06.691Z,942.6
2019-01-27T07:10:12.830Z,942.6
2019-01-27T07:13:18.798Z,942.6
2019-01-27T07:16:24.672Z,942.6
2019-01-27T07:19:30.724Z,942.6
2019-01-27T07:22:36.779Z,942.6
2019-01-27T07:25:42.834Z,942.6
2019-01-27T07:28:48.790Z,942.6
2019-01-27T07:31:54.671Z,942.7
2019-01-27T07:35:00.772Z,942.6
2019-01-27T07:38:06.890Z,942.6
2019-01-27T07:41:13.103Z,942.6
2019-01-27T07:44:19.014Z,942.6
2019-01-27T07:47:25.201Z,942.5
2019-01-27T07:50:31.228Z,942.5
2019-01-27T07:53:38.401Z,942.5
2019-01-27T07:56:44.378Z,942.5
2019-01-27T07:59:50.329Z,942.6
2019-01-27T08:02:56.508Z,942.6
2019-01-27T08:06:02.659Z,942.5
2019-01-27T08:09:08.646Z,942.5
2019-01-27T08:12:14.678Z,942.5
2019-01-27T08:15:20.559Z,942.5
2019-01-27T08:18:26.862Z,942.5
2019-01-27T08:21:32.875Z,942.6
2019-01-27T08:24:38.833Z,942.7
2019-01-27T08:27:44.784Z,942.7
2019-01-27T08:30:50.854Z,942.6
2019-01-27T08:33:56.727Z,942.5
2019-01-27T08:37:02.762Z,942.6
2019-01-27T08:40:08.775Z,942.6
2019-01-27T08:43:14.784Z,942.6
2019-01-27T08:46:20.747Z,942.6
2019-01-27T08:49:26.719Z,942.5
2019-01-27T08:52:32.670Z,942.4
2019-01-27T08:55:40.215Z,942.5
2019-01-27T08:58:46.252Z,942.5
2019-01-27T09:01:52.388Z,942.6
2019-01-27T09:04:58.346Z,942.5
2019-01-27T09:08:04.246Z,942.5
2019-01-27T09:11:10.168Z,942.4
2019-01-27T09:14:16.047Z,942.5
2019-01-27T09:17:22.081Z,942.5
2019-01-27T09:20:28.054Z,942.5
2019-01-27T09:23:34.006Z,942.5
2019-01-27T09:26:40.068Z,942.5
2019-01-27T09:29:45.946Z,942.5
2019-01-27T09:32:53.571Z,942.5
2019-01-27T09:35:59.677Z,942.6
2019-01-27T09:39:05.740Z,942.6
2019-01-27T09:42:11.711Z,942.7
2019-01-27T09:45:17.596Z,942.6
2019-01-27T09:48:23.518Z,942.5
2019-01-27T09:51:29.476Z,942.5
2019-01-27T09:54:35.435Z,942.5
2019-01-27T09:57:41.397Z,942.4
2019-01-27T10:00:47.354Z,942.5
2019-01-27T10:03:53.232Z,942.5
2019-01-27T10:06:59.179Z,942.4
2019-01-27T10:10:05.236Z,942.4
2019-01-27T10:13:11.114Z,942.3
2019-01-27T10:16:17.048Z,942.4
2019-01-27T10:19:22.939Z,942.3
2019-01-27T10:22:28.968Z,942.3
2019-01-27T10:25:34.929Z,942.2
2019-01-27T10:28:40.888Z,942.2
2019-01-27T10:31:46.848Z,942.2
2019-01-27T10:34:52.807Z,942.2
2019-01-27T10:38:01.582Z,942.2
2019-01-27T10:41:07.494Z,942.2
2019-01-27T10:44:13.553Z,942.1
2019-01-27T10:47:19.509Z,942
2019-01-27T10:50:25.776Z,942.1
2019-01-27T10:53:36.040Z,942.1
2019-01-27T10:56:41.995Z,941.9
2019-01-27T10:59:47.880Z,941.9
2019-01-27T11:02:53.814Z,941.8
2019-01-27T11:05:59.873Z,941.8
2019-01-27T11:09:05.847Z,941.7
2019-01-27T11:12:11.714Z,941.7
2019-01-27T11:15:17.657Z,941.7
2019-01-27T11:18:23.616Z,941.7
2019-01-27T11:21:29.572Z,941.7
2019-01-27T11:24:35.530Z,941.7
2019-01-27T11:27:41.487Z,941.6
2019-01-27T11:30:47.367Z,941.6
2019-01-27T11:33:53.408Z,941.6
2019-01-27T11:36:59.368Z,941.6
2019-01-27T11:40:05.325Z,941.5
2019-01-27T11:43:11.347Z,941.5
2019-01-27T11:46:17.249Z,941.5
2019-01-27T11:49:23.212Z,941.5
2019-01-27T11:52:29.170Z,941.4
2019-01-27T11:55:35.128Z,941.3
2019-01-27T11:58:41.085Z,941.3
2019-01-27T12:01:47.047Z,941.3
2019-01-27T12:04:53.003Z,941.3
2019-01-27T12:07:58.965Z,941.3
2019-01-27T12:11:05.028Z,941.3
2019-01-27T12:14:10.982Z,941.2
2019-01-27T12:17:17.047Z,941.2
2019-01-27T12:20:23.002Z,941.2
2019-01-27T12:23:29.065Z,941.1
2019-01-27T12:26:35.133Z,940.9
2019-01-27T12:29:41.046Z,940.9
2019-01-27T12:32:47.046Z,940.9
2019-01-27T12:35:53.010Z,940.9
2019-01-27T12:38:58.969Z,940.9
2019-01-27T12:42:04.852Z,940.9
2019-01-27T12:45:10.793Z,940.9
2019-01-27T12:48:16.747Z,940.9
2019-01-27T12:51:22.706Z,940.9
2019-01-27T12:54:28.676Z,940.9
2019-01-27T12:57:35.643Z,940.9
2019-01-27T13:00:41.614Z,940.8
2019-01-27T13:03:47.483Z,940.8
2019-01-27T13:06:53.546Z,940.9
2019-01-27T13:09:59.584Z,940.8
2019-01-27T13:13:05.550Z,940.8
2019-01-27T13:16:16.812Z,940.8
2019-01-27T13:19:22.694Z,940.8
2019-01-27T13:22:28.654Z,940.8
2019-01-27T13:25:34.538Z,940.8
2019-01-27T13:28:40.464Z,940.8
2019-01-27T13:31:46.439Z,940.8
2019-01-27T13:34:56.948Z,940.7
2019-01-27T13:38:02.858Z,940.8
2019-01-27T13:41:08.865Z,940.7
2019-01-27T13:44:14.870Z,940.7
2019-01-27T13:47:22.368Z,940.7
2019-01-27T13:50:28.247Z,940.6
2019-01-27T13:53:34.189Z,940.6
2019-01-27T13:56:40.110Z,940.5
2019-01-27T13:59:47.224Z,940.6
2019-01-27T14:02:54.618Z,940.5
2019-01-27T14:06:00.497Z,940.5
2019-01-27T14:09:06.442Z,940.5
2019-01-27T14:12:12.494Z,940.5
2019-01-27T14:15:18.420Z,940.5
2019-01-27T14:18:24.418Z,940.6
2019-01-27T14:21:30.389Z,940.5
2019-01-27T14:24:36.496Z,940.5
2019-01-27T14:27:42.372Z,940.6
2019-01-27T14:30:48.436Z,940.6
2019-01-27T14:33:54.419Z,940.5
2019-01-27T14:37:00.480Z,940.5
2019-01-27T14:40:06.366Z,940.6
2019-01-27T14:43:12.298Z,940.5
2019-01-27T14:46:18.261Z,940.5
2019-01-27T14:49:24.151Z,940.5
2019-01-27T14:52:30.198Z,940.6
2019-01-27T14:55:36.240Z,940.6
2019-01-27T14:58:42.405Z,940.6
2019-01-27T15:01:48.366Z,940.7
2019-01-27T15:04:54.322Z,940.7
2019-01-27T15:08:01.508Z,940.8
2019-01-27T15:11:07.468Z,940.8
2019-01-27T15:14:13.427Z,940.8
2019-01-27T15:17:19.366Z,940.8
2019-01-27T15:20:25.347Z,940.8
2019-01-27T15:23:33.147Z,940.8
2019-01-27T15:26:39.687Z,940.8
2019-01-27T15:29:45.785Z,940.9
2019-01-27T15:32:51.686Z,940.8
2019-01-27T15:35:57.708Z,940.8
2019-01-27T15:39:03.670Z,940.9
2019-01-27T15:42:09.751Z,940.8
2019-01-27T15:45:15.792Z,940.8
2019-01-27T15:48:21.855Z,940.9
2019-01-27T15:51:27.961Z,940.9
2019-01-27T15:54:33.977Z,940.9
2019-01-27T15:57:39.937Z,940.9
2019-01-27T16:00:45.845Z,941
2019-01-27T16:03:51.851Z,941
2019-01-27T16:06:57.810Z,941
2019-01-27T16:10:03.770Z,941
2019-01-27T16:13:11.457Z,941
2019-01-27T16:16:17.533Z,941.1
2019-01-27T16:19:23.492Z,941.2
2019-01-27T16:22:29.450Z,941.2
2019-01-27T16:25:35.329Z,941.2
2019-01-27T16:28:41.371Z,941.3
2019-01-27T16:31:50.178Z,941.3
2019-01-27T16:34:56.159Z,941.2
2019-01-27T16:38:02.322Z,941.3
2019-01-27T16:41:08.211Z,941.3
2019-01-27T16:44:14.137Z,941.3
2019-01-27T16:47:20.302Z,941.3
2019-01-27T16:50:26.262Z,941.3
2019-01-27T16:53:32.373Z,941.4
2019-01-27T16:56:38.384Z,941.4
2019-01-27T16:59:44.961Z,941.4
2019-01-27T17:02:50.926Z,941.5
2019-01-27T17:05:56.980Z,941.4
2019-01-27T17:09:03.043Z,941.4
2019-01-27T17:12:08.919Z,941.6
2019-01-27T17:15:14.878Z,941.5
2019-01-27T17:18:20.877Z,941.5
2019-01-27T17:21:26.879Z,941.5
2019-01-27T17:24:32.841Z,941.5
2019-01-27T17:27:38.717Z,941.5
2019-01-27T17:30:44.656Z,941.4
2019-01-27T17:33:50.533Z,941.4
2019-01-27T17:36:56.471Z,941.4
2019-01-27T17:40:02.430Z,941.4
2019-01-27T17:43:08.309Z,941.4
2019-01-27T17:46:14.249Z,941.4
2019-01-27T17:49:20.127Z,941.5
2019-01-27T17:52:26.069Z,941.5
2019-01-27T17:55:32.029Z,941.5
2019-01-27T17:58:38.085Z,941.6
2019-01-27T18:01:43.965Z,941.6
2019-01-27T18:04:49.901Z,941.5
2019-01-27T18:07:55.780Z,941.6
2019-01-27T18:11:01.723Z,941.6
2019-01-27T18:14:07.614Z,941.6
2019-01-27T18:17:13.762Z,941.6
2019-01-27T18:20:19.707Z,941.5
2019-01-27T18:23:25.663Z,941.6
2019-01-27T18:26:31.552Z,941.6
2019-01-27T18:29:37.608Z,941.7
2019-01-27T18:32:43.644Z,941.8
2019-01-27T18:35:49.725Z,941.8
2019-01-27T18:38:55.577Z,941.8
2019-01-27T18:42:01.722Z,941.7
2019-01-27T18:45:07.649Z,941.9
2019-01-27T18:48:13.760Z,941.8
2019-01-27T18:51:22.520Z,941.8
2019-01-27T18:54:28.530Z,941.8
2019-01-27T18:57:37.260Z,941.8
2019-01-27T19:00:43.226Z,941.9
2019-01-27T19:03:49.092Z,941.8
2019-01-27T19:06:55.247Z,941.9
2019-01-27T19:10:02.231Z,941.9
2019-01-27T19:13:11.044Z,941.9
2019-01-27T19:16:16.930Z,941.8
2019-01-27T19:19:22.865Z,941.8
2019-01-27T19:22:28.822Z,941.8
2019-01-27T19:25:34.781Z,941.8
2019-01-27T19:28:40.658Z,941.8
2019-01-27T19:31:46.599Z,941.8
2019-01-27T19:34:52.476Z,941.8
2019-01-27T19:37:59.842Z,941.6
2019-01-27T19:41:05.725Z,941.6
2019-01-27T19:44:11.661Z,941.6
2019-01-27T19:47:17.627Z,941.6
2019-01-27T19:50:23.500Z,941.5
2019-01-27T19:53:29.553Z,941.6
2019-01-27T19:56:35.505Z,941.5
2019-01-27T19:59:41.437Z,941.5
2019-01-27T20:02:47.419Z,941.5
2019-01-27T20:05:53.379Z,941.4
2019-01-27T20:08:59.440Z,941.3
2019-01-27T20:12:05.319Z,941.3
2019-01-27T20:15:11.256Z,941.3
2019-01-27T20:18:19.882Z,941.3
2019-01-27T20:21:25.757Z,941.2
2019-01-27T20:24:31.696Z,941.2
2019-01-27T20:27:37.655Z,941.2
2019-01-27T20:30:43.532Z,941.1
2019-01-27T20:33:49.478Z,941.1
2019-01-27T20:36:55.395Z,941.1
2019-01-27T20:40:01.456Z,941.1
2019-01-27T20:43:07.354Z,941.1
2019-01-27T20:46:13.233Z,941
2019-01-27T20:49:19.192Z,941
2019-01-27T20:52:25.357Z,941
2019-01-27T20:55:31.215Z,941
2019-01-27T20:58:37.357Z,941
2019-01-27T21:01:43.325Z,941
2019-01-27T21:04:49.196Z,940.9
2019-01-27T21:08:00.150Z,940.9
2019-01-27T21:11:06.118Z,940.8
2019-01-27T21:14:12.068Z,940.8
2019-01-27T21:17:17.947Z,940.8
2019-01-27T21:20:23.908Z,940.8
2019-01-27T21:23:29.768Z,940.7
2019-01-27T21:26:35.831Z,940.5
2019-01-27T21:29:41.678Z,940.4
2019-01-27T21:32:47.630Z,940.6
2019-01-27T21:35:58.803Z,940.6
2019-01-27T21:39:04.678Z,940.6
2019-01-27T21:42:10.721Z,940.5
2019-01-27T21:45:16.596Z,940.5
2019-01-27T21:48:22.657Z,940.5
2019-01-27T21:51:28.630Z,940.6
2019-01-27T21:54:34.663Z,940.6
2019-01-27T21:57:40.536Z,940.7
2019-01-27T22:00:46.525Z,940.6
2019-01-27T22:03:52.452Z,940.8
2019-01-27T22:06:58.405Z,941
2019-01-27T22:10:04.357Z,941
2019-01-27T22:13:10.340Z,941
2019-01-27T22:16:16.401Z,940.9
2019-01-27T22:19:22.348Z,941.1
2019-01-27T22:22:28.316Z,941.1
2019-01-27T22:25:37.129Z,941.1
2019-01-27T22:28:43.089Z,941
2019-01-27T22:31:49.047Z,940.8
2019-01-27T22:34:55.000Z,940.8
2019-01-27T22:38:00.949Z,940.8
2019-01-27T22:41:07.026Z,940.8
2019-01-27T22:44:13.103Z,940.9
2019-01-27T22:47:21.906Z,941
2019-01-27T22:50:27.785Z,941.1
2019-01-27T22:53:33.722Z,941.1
2019-01-27T22:56:39.683Z,941
2019-01-27T22:59:45.560Z,940.9
2019-01-27T23:02:51.499Z,940.9
2019-01-27T23:05:57.627Z,941
2019-01-27T23:09:03.653Z,941
2019-01-27T23:12:09.714Z,940.9
2019-01-27T23:15:15.772Z,940.8
2019-01-27T23:18:21.733Z,940.9
2019-01-27T23:21:27.693Z,940.7
2019-01-27T23:24:33.754Z,940.7
2019-01-27T23:27:39.623Z,940.6
2019-01-27T23:30:45.541Z,940.5
2019-01-27T23:33:51.502Z,940.6
2019-01-27T23:36:57.462Z,940.5
2019-01-27T23:40:03.420Z,940.6
2019-01-27T23:43:09.382Z,940.6
2019-01-27T23:46:15.345Z,940.7
2019-01-27T23:49:21.237Z,940.7
2019-01-27T23:52:27.111Z,940.7
2019-01-27T23:55:33.115Z,940.6
2019-01-27T23:58:39.093Z,940.6
